Time;durP1;ratioP1;P1;durP2;ratioP2;P2;SDS_P1;SDS_P2;PMS_P1;PMS_P2;Temp;Humidity;BMP_temperature;BMP_pressure;BME280_temperature;BME280_humidity;BME280_pressure;Samples;Min_cycle;Max_cycle;Signal;HPM_P1;HPM_P2
2023/08/05 00:00:22;;;;;;;15.20;9.77;;;;;;;23.53;49.86;101805.34;5010882;28;20046;-41
2023/08/05 00:02:49;;;;;;;15.07;10.00;;;;;;;23.51;49.90;101801.94;5009182;28;20120;-41
2023/08/05 00:05:16;;;;;;;15.27;10.25;;;;;;;23.50;49.89;101800.25;5008208;28;20057;-40
2023/08/05 00:07:43;;;;;;;14.55;9.77;;;;;;;23.49;49.75;101803.97;5008713;28;20074;-41
2023/08/05 00:10:10;;;;;;;15.52;10.00;;;;;;;23.49;49.81;101795.03;5008504;28;20061;-40
2023/08/05 00:12:36;;;;;;;14.93;9.52;;;;;;;23.49;50.07;101797.72;5008998;28;20077;-41
2023/08/05 00:15:03;;;;;;;15.18;9.30;;;;;;;23.48;49.82;101796.00;5009956;28;20129;-41
2023/08/05 00:17:30;;;;;;;15.15;9.93;;;;;;;23.47;50.19;101797.03;5007117;28;20046;-39
2023/08/05 00:19:56;;;;;;;15.52;10.05;;;;;;;23.46;50.40;101800.75;5008265;28;20049;-41
2023/08/05 00:22:23;;;;;;;13.70;9.15;;;;;;;23.45;50.43;101799.91;5008931;28;20046;-40
2023/08/05 00:24:50;;;;;;;14.13;9.10;;;;;;;23.45;50.34;101796.38;5011108;28;20086;-40
2023/08/05 00:27:16;;;;;;;15.25;9.95;;;;;;;23.44;50.46;101795.53;5006713;28;20164;-40
2023/08/05 00:29:45;;;;;;;16.83;10.43;;;;;;;23.44;50.22;101791.94;5008891;28;20058;-41
2023/08/05 00:32:12;;;;;;;13.88;8.88;;;;;;;23.43;50.18;101784.84;5007268;28;20104;-40
2023/08/05 00:34:39;;;;;;;12.07;7.93;;;;;;;23.42;50.44;101781.31;5007814;28;20056;-41
2023/08/05 00:37:06;;;;;;;14.07;8.77;;;;;;;23.41;50.17;101785.03;5006352;28;20137;-40
2023/08/05 00:39:32;;;;;;;12.70;8.45;;;;;;;23.39;50.34;101777.06;5009936;28;20046;-40
2023/08/05 00:41:59;;;;;;;13.63;8.23;;;;;;;23.39;49.98;101774.34;5008255;28;20042;-41
2023/08/05 00:44:26;;;;;;;13.93;9.52;;;;;;;23.38;50.08;101772.66;5013098;28;20053;-41
2023/08/05 00:46:52;;;;;;;12.48;7.93;;;;;;;23.38;50.03;101767.25;5008604;28;20077;-40
2023/08/05 00:49:20;;;;;;;12.80;8.38;;;;;;;23.37;50.08;101754.75;5009769;28;20084;-39
2023/08/05 00:51:47;;;;;;;10.70;7.32;;;;;;;23.37;50.45;101753.91;5008001;28;20140;-40
2023/08/05 00:54:14;;;;;;;12.20;7.95;;;;;;;23.36;50.43;101753.06;5009616;28;20057;-41
2023/08/05 00:56:41;;;;;;;11.85;7.55;;;;;;;23.35;50.58;101750.50;5007789;28;20069;-40
2023/08/05 00:59:07;;;;;;;12.85;8.27;;;;;;;23.34;50.10;101749.66;5006786;28;20065;-41
2023/08/05 01:01:34;;;;;;;11.00;7.10;;;;;;;23.33;50.15;101747.13;5006319;28;20438;-38
2023/08/05 01:04:01;;;;;;;12.52;7.53;;;;;;;23.33;50.40;101747.97;5006102;28;20054;-41
2023/08/05 01:06:28;;;;;;;11.45;7.57;;;;;;;23.33;50.23;101752.56;5005483;28;20120;-41
2023/08/05 01:08:57;;;;;;;12.55;7.53;;;;;;;23.32;50.51;101745.47;5008576;28;20104;-41
2023/08/05 01:11:24;;;;;;;10.18;7.05;;;;;;;23.32;50.23;101745.47;5013242;28;20409;-39
2023/08/05 01:13:50;;;;;;;10.75;7.22;;;;;;;23.31;50.39;101743.75;5013603;28;20452;-41
2023/08/05 01:16:17;;;;;;;9.35;6.80;;;;;;;23.31;50.43;101738.31;5013377;28;20119;-41
2023/08/05 01:18:44;;;;;;;8.93;6.47;;;;;;;23.30;50.55;101747.47;5009164;28;20077;-41
2023/08/05 01:21:22;;;;;;;9.40;6.63;;;;;;;23.29;50.63;101751.19;5012605;28;20294;-40
2023/08/05 01:23:52;;;;;;;8.35;5.63;;;;;;;23.29;50.55;101748.50;5013511;28;20460;-41
2023/08/05 01:26:19;;;;;;;10.13;6.82;;;;;;;23.28;50.10;101752.22;5009806;28;20617;-41
2023/08/05 01:28:46;;;;;;;10.32;6.95;;;;;;;23.28;50.55;101752.22;5010901;28;20050;-40
2023/08/05 01:31:15;;;;;;;8.45;6.28;;;;;;;23.27;50.38;101750.50;5010905;28;20137;-39
2023/08/05 01:33:42;;;;;;;9.73;6.30;;;;;;;23.26;50.18;101749.66;5006210;28;20050;-41
2023/08/05 01:36:21;;;;;;;8.60;6.22;;;;;;;23.25;50.47;101742.56;5005308;28;20054;-40
2023/08/05 01:38:48;;;;;;;9.02;6.07;;;;;;;23.24;50.64;101740.88;5008465;28;20049;-40
2023/08/05 01:41:15;;;;;;;8.35;5.93;;;;;;;23.23;50.67;101735.63;5005283;28;20069;-41
2023/08/05 01:43:42;;;;;;;9.65;6.32;;;;;;;23.23;50.34;101730.19;5002859;28;20096;-40
2023/08/05 01:46:09;;;;;;;7.75;5.15;;;;;;;23.23;50.38;101731.03;5006346;28;20088;-40
2023/08/05 01:48:36;;;;;;;9.13;5.47;;;;;;;23.23;50.63;101735.63;5004008;28;20772;-40
2023/08/05 01:51:03;;;;;;;9.45;5.95;;;;;;;23.22;50.97;101729.38;5003766;28;20054;-40
2023/08/05 01:53:30;;;;;;;8.23;5.55;;;;;;;23.20;50.35;101726.00;5009076;28;20073;-39
2023/08/05 01:55:56;;;;;;;9.07;5.70;;;;;;;23.20;50.77;101731.41;5007484;28;20172;-41
2023/08/05 01:58:23;;;;;;;8.13;5.63;;;;;;;23.20;50.61;101739.53;5006360;28;20046;-41
2023/08/05 02:00:50;;;;;;;7.80;4.97;;;;;;;23.19;50.78;101729.69;5005990;28;20049;-41
2023/08/05 02:03:17;;;;;;;8.18;5.30;;;;;;;23.19;50.89;101726.13;5006085;28;20050;-40
2023/08/05 02:05:44;;;;;;;8.85;5.40;;;;;;;23.17;50.96;101726.31;5007029;28;20049;-38
2023/08/05 02:08:10;;;;;;;8.27;5.45;;;;;;;23.15;50.91;101720.22;5004848;28;20103;-41
2023/08/05 02:10:37;;;;;;;9.13;5.30;;;;;;;23.15;50.94;101731.03;5006850;28;20137;-40
2023/08/05 02:13:04;;;;;;;7.25;4.68;;;;;;;23.13;50.78;101728.50;5006179;28;20062;-40
2023/08/05 02:15:31;;;;;;;6.97;4.63;;;;;;;23.13;50.90;101725.81;5005948;28;20401;-41
2023/08/05 02:17:57;;;;;;;7.95;4.95;;;;;;;23.12;50.93;101726.81;5005096;28;20131;-41
2023/08/05 02:20:24;;;;;;;7.47;4.78;;;;;;;23.11;50.68;101717.00;5007299;28;20666;-41
2023/08/05 02:22:51;;;;;;;7.00;4.55;;;;;;;23.11;51.03;101719.69;5007005;28;20057;-40
2023/08/05 02:25:17;;;;;;;5.70;4.18;;;;;;;23.10;50.59;101723.41;5005122;28;20129;-40
2023/08/05 02:27:44;;;;;;;7.43;4.70;;;;;;;23.09;50.78;101713.63;5004089;28;20138;-40
2023/08/05 02:30:10;;;;;;;6.95;4.78;;;;;;;23.09;50.66;101721.72;5005544;28;20591;-41
2023/08/05 02:32:37;;;;;;;6.57;4.35;;;;;;;23.09;50.73;101723.59;5005472;28;20525;-41
2023/08/05 02:35:04;;;;;;;6.65;4.45;;;;;;;23.08;50.51;101711.09;5005240;28;20045;-39
2023/08/05 02:37:30;;;;;;;5.40;3.63;;;;;;;23.07;50.87;101715.63;5005065;28;20363;-40
2023/08/05 02:39:57;;;;;;;5.53;3.83;;;;;;;23.07;51.41;101715.63;5006935;28;20050;-40
2023/08/05 02:42:23;;;;;;;5.50;3.92;;;;;;;23.05;50.89;101709.56;5004424;28;20136;-40
2023/08/05 02:44:50;;;;;;;5.97;3.75;;;;;;;23.07;50.83;101706.69;5005197;28;20053;-40
2023/08/05 02:47:17;;;;;;;5.65;3.78;;;;;;;23.05;51.16;101701.44;5003291;28;20613;-41
2023/08/05 02:49:43;;;;;;;5.55;4.00;;;;;;;23.04;51.40;101693.50;5007244;28;20099;-39
2023/08/05 02:52:10;;;;;;;5.80;3.63;;;;;;;23.03;50.80;101684.53;5004233;28;20159;-39
2023/08/05 02:54:36;;;;;;;5.72;3.38;;;;;;;23.04;50.88;101682.69;5005603;28;20050;-40
2023/08/05 02:57:03;;;;;;;4.72;3.47;;;;;;;23.03;50.64;101678.28;5004551;28;20152;-40
2023/08/05 02:59:30;;;;;;;5.45;3.55;;;;;;;23.02;51.09;101674.72;5005569;28;20077;-40
2023/08/05 03:01:56;;;;;;;5.60;3.67;;;;;;;23.01;51.02;101675.75;5004685;28;20393;-39
2023/08/05 03:04:23;;;;;;;5.30;3.65;;;;;;;23.02;51.06;101671.19;5005570;28;20050;-41
2023/08/05 03:06:50;;;;;;;5.88;3.83;;;;;;;23.00;51.00;101668.66;5004368;28;20371;-40
2023/08/05 03:09:17;;;;;;;6.40;3.47;;;;;;;23.01;50.85;101661.38;5003934;28;20061;-41
2023/08/05 03:11:43;;;;;;;5.43;3.38;;;;;;;23.00;51.01;101660.56;5010498;28;20140;-40
2023/08/05 03:14:10;;;;;;;6.82;3.55;;;;;;;22.99;50.76;101658.00;5009569;28;20082;-41
2023/08/05 03:16:37;;;;;;;5.30;3.75;;;;;;;22.98;51.13;101654.44;5011282;28;20136;-40
2023/08/05 03:19:04;;;;;;;4.47;3.10;;;;;;;22.97;50.50;101650.06;5004183;28;20381;-41
2023/08/05 03:21:30;;;;;;;5.25;3.25;;;;;;;22.98;50.91;101645.50;5008227;28;20058;-38
2023/08/05 03:23:57;;;;;;;4.18;2.70;;;;;;;22.96;51.75;101645.66;5007302;28;20074;-39
2023/08/05 03:26:23;;;;;;;4.63;3.33;;;;;;;22.95;51.37;101641.25;5008969;28;20046;-40
2023/08/05 03:28:50;;;;;;;5.97;3.03;;;;;;;22.95;51.01;101632.31;5007985;28;20445;-39
2023/08/05 03:31:17;;;;;;;4.75;3.00;;;;;;;22.94;51.28;101634.16;5007570;28;20183;-41
2023/08/05 03:33:43;;;;;;;4.18;2.97;;;;;;;22.93;50.80;101632.47;5008793;28;20049;-41
2023/08/05 03:36:10;;;;;;;5.22;3.30;;;;;;;22.93;51.29;101632.47;5008966;28;20128;-40
2023/08/05 03:38:36;;;;;;;4.32;2.83;;;;;;;22.93;51.66;101635.19;5010597;28;20074;-43
2023/08/05 03:41:06;;;;;;;4.20;2.70;;;;;;;22.92;51.00;101636.22;5007747;28;20104;-40
2023/08/05 03:43:32;;;;;;;4.75;2.88;;;;;;;22.92;51.36;101638.91;5009002;28;20107;-40
2023/08/05 03:45:59;;;;;;;5.35;2.78;;;;;;;22.91;51.05;101637.19;5008829;28;20096;-38
2023/08/05 03:48:26;;;;;;;3.75;2.72;;;;;;;22.89;51.38;101637.34;5012693;28;20434;-41
2023/08/05 03:50:52;;;;;;;4.63;2.65;;;;;;;22.89;51.49;101640.03;5008829;28;20063;-39
2023/08/05 03:53:20;;;;;;;4.38;2.92;;;;;;;22.89;51.22;101633.78;5013292;28;21529;-41
2023/08/05 03:55:47;;;;;;;3.55;2.30;;;;;;;22.88;51.35;101638.34;5008551;28;20147;-41
2023/08/05 03:58:13;;;;;;;4.70;2.90;;;;;;;22.88;51.51;101643.75;5009432;28;20096;-41
2023/08/05 04:00:43;;;;;;;4.13;2.53;;;;;;;22.87;51.25;101628.56;5007152;28;20042;-39
2023/08/05 04:03:10;;;;;;;3.65;2.67;;;;;;;22.88;51.43;101630.25;5011824;28;20485;-40
2023/08/05 04:05:37;;;;;;;4.93;2.58;;;;;;;22.85;51.40;101617.06;5014120;28;20396;-40
2023/08/05 04:08:03;;;;;;;3.97;2.65;;;;;;;22.86;51.43;101616.03;5013360;28;20448;-40
2023/08/05 04:10:33;;;;;;;4.25;2.50;;;;;;;22.84;51.60;101596.47;5012684;28;20107;-41
2023/08/05 04:13:01;;;;;;;4.13;2.83;;;;;;;22.84;51.18;101601.03;5012494;28;20100;-40
2023/08/05 04:15:28;;;;;;;4.00;2.47;;;;;;;22.83;51.45;101593.91;5013568;28;20050;-41
2023/08/05 04:17:59;;;;;;;3.47;2.33;;;;;;;22.83;51.22;101592.03;5010531;28;20136;-40
2023/08/05 04:20:30;;;;;;;4.93;2.28;;;;;;;22.82;51.20;101586.81;5011143;28;20076;-40
2023/08/05 04:22:57;;;;;;;4.22;2.58;;;;;;;22.82;51.22;101582.25;5013208;28;20053;-40
2023/08/05 04:25:24;;;;;;;4.60;2.90;;;;;;;22.82;51.27;101578.69;5012045;28;20073;-39
2023/08/05 04:27:51;;;;;;;4.47;2.20;;;;;;;22.81;51.59;101577.88;5011887;28;20103;-40
2023/08/05 04:30:17;;;;;;;2.92;2.17;;;;;;;22.80;51.41;101568.06;5012497;28;20084;-40
2023/08/05 04:32:44;;;;;;;2.80;2.00;;;;;;;22.80;51.18;101573.47;5011561;28;20050;-40
2023/08/05 04:35:10;;;;;;;2.50;2.15;;;;;;;22.79;51.54;101577.16;5010946;28;20049;-41
2023/08/05 04:37:37;;;;;;;3.53;2.22;;;;;;;22.79;51.74;101574.47;5012507;28;20492;-40
2023/08/05 04:40:04;;;;;;;3.10;2.47;;;;;;;22.79;51.28;101566.34;5010618;28;20311;-40
2023/08/05 04:42:30;;;;;;;3.58;2.15;;;;;;;22.79;51.79;101571.75;5012479;28;20049;-39
2023/08/05 04:44:57;;;;;;;3.50;2.30;;;;;;;22.78;51.30;101567.38;5011162;28;20054;-40
2023/08/05 04:47:24;;;;;;;4.18;2.47;;;;;;;22.78;51.54;101561.97;5012676;28;20073;-41
2023/08/05 04:49:50;;;;;;;3.13;2.40;;;;;;;22.78;51.55;101563.84;5012411;28;20081;-40
2023/08/05 04:52:17;;;;;;;2.70;1.95;;;;;;;22.78;51.45;101555.72;5012476;28;20053;-41
2023/08/05 04:54:44;;;;;;;3.45;2.25;;;;;;;22.77;51.73;101567.56;5013009;28;20133;-40
2023/08/05 04:57:12;;;;;;;3.33;1.90;;;;;;;22.77;51.70;101557.59;5012507;28;20492;-37
2023/08/05 04:59:39;;;;;;;3.08;2.13;;;;;;;22.77;51.55;101554.03;5013210;28;20100;-39
2023/08/05 05:02:06;;;;;;;3.92;2.13;;;;;;;22.77;51.55;101554.03;5010355;28;20050;-41
2023/08/05 05:04:33;;;;;;;3.55;2.22;;;;;;;22.77;51.12;101554.03;5009978;28;20042;-40
2023/08/05 05:07:00;;;;;;;3.75;2.20;;;;;;;22.76;51.76;101544.25;5009038;28;20535;-40
2023/08/05 05:09:27;;;;;;;2.47;2.15;;;;;;;22.75;51.68;101543.38;5010122;28;20081;-39
2023/08/05 05:11:54;;;;;;;2.42;1.75;;;;;;;22.76;51.82;101552.34;5011482;28;20042;-40
2023/08/05 05:14:21;;;;;;;2.45;1.75;;;;;;;22.75;51.31;101551.50;5007917;28;20061;-39
2023/08/05 05:16:48;;;;;;;5.03;2.03;;;;;;;22.75;51.82;101543.38;5011372;28;20068;-40
2023/08/05 05:19:15;;;;;;;2.45;2.10;;;;;;;22.76;51.57;101549.66;5008496;28;20048;-40
2023/08/05 05:21:42;;;;;;;4.63;2.20;;;;;;;22.75;51.72;101547.94;5009111;28;20425;-40
2023/08/05 05:24:08;;;;;;;2.20;1.80;;;;;;;22.76;51.58;101541.56;5010430;28;20338;-40
2023/08/05 05:26:35;;;;;;;3.35;2.00;;;;;;;22.74;51.49;101536.28;5010795;28;20129;-39
2023/08/05 05:29:01;;;;;;;2.92;2.10;;;;;;;22.74;51.38;101532.75;5011371;28;20092;-39
2023/08/05 05:31:28;;;;;;;3.00;1.73;;;;;;;22.73;51.23;101515.69;5011512;28;20797;-40
2023/08/05 05:33:55;;;;;;;4.55;2.50;;;;;;;22.74;51.68;101521.94;5008665;28;20049;-40
2023/08/05 05:36:21;;;;;;;2.67;1.60;;;;;;;22.75;51.54;101519.06;5009870;28;20129;-40
2023/08/05 05:38:48;;;;;;;4.60;1.88;;;;;;;22.75;51.61;101527.16;5004836;28;20609;-40
2023/08/05 05:41:16;;;;;;;2.50;1.77;;;;;;;22.74;51.74;101528.19;5009305;28;20136;-41
2023/08/05 05:43:42;;;;;;;2.72;1.73;;;;;;;22.74;51.59;101524.66;5007649;28;20084;-43
2023/08/05 05:46:09;;;;;;;4.72;2.17;;;;;;;22.74;51.79;101517.38;5006209;28;20423;-40
2023/08/05 05:48:36;;;;;;;2.75;1.80;;;;;;;22.74;51.49;101513.84;5001631;28;20222;-40
2023/08/05 05:51:03;;;;;;;2.33;1.40;;;;;;;22.74;51.43;101513.84;5003652;28;20047;-40
2023/08/05 05:53:29;;;;;;;2.33;1.38;;;;;;;22.73;51.60;101507.59;5005843;28;20402;-41
2023/08/05 05:55:56;;;;;;;4.05;1.65;;;;;;;22.74;51.48;101503.03;5006679;28;20072;-40
2023/08/05 05:58:22;;;;;;;3.10;2.08;;;;;;;22.74;51.78;101513.84;5007937;28;20112;-39
2023/08/05 06:00:54;;;;;;;4.10;2.20;;;;;;;22.74;51.90;101511.13;5009136;28;20111;-40
2023/08/05 06:03:21;;;;;;;2.90;2.20;;;;;;;22.74;51.77;101514.66;5010287;28;20061;-39
2023/08/05 06:05:50;;;;;;;3.33;2.10;;;;;;;22.74;51.68;101511.97;5008404;28;20129;-40
2023/08/05 06:08:17;;;;;;;5.18;2.78;;;;;;;22.75;51.76;101510.09;5009941;28;20053;-40
2023/08/05 06:10:43;;;;;;;3.88;2.10;;;;;;;22.75;51.95;101510.09;5008973;28;20057;-40
2023/08/05 06:13:10;;;;;;;4.38;2.80;;;;;;;22.75;51.50;101513.66;5004989;28;20477;-40
2023/08/05 06:15:41;;;;;;;3.13;2.22;;;;;;;22.74;51.79;101508.44;5007083;28;20120;-41
2023/08/05 06:18:08;;;;;;;5.78;2.70;;;;;;;22.76;51.80;101511.81;5009824;28;20060;-39
2023/08/05 06:20:36;;;;;;;4.07;2.35;;;;;;;22.75;51.81;101500.13;5007281;28;21000;-39
2023/08/05 06:23:03;;;;;;;5.05;2.20;;;;;;;22.76;51.78;101496.44;5013115;28;20058;-39
2023/08/05 06:25:30;;;;;;;4.05;2.20;;;;;;;22.76;51.96;101496.44;5012993;28;20123;-40
2023/08/05 06:27:56;;;;;;;3.47;2.03;;;;;;;22.77;51.68;101492.72;5007441;28;20053;-39
2023/08/05 06:30:23;;;;;;;3.85;2.53;;;;;;;22.78;51.42;101490.84;5008091;28;20050;-38
2023/08/05 06:32:50;;;;;;;3.22;2.10;;;;;;;22.78;51.77;101493.56;5007620;28;20058;-40
2023/08/05 06:35:16;;;;;;;3.95;2.63;;;;;;;22.80;51.71;101483.44;5006671;28;20145;-40
2023/08/05 06:37:44;;;;;;;3.80;2.08;;;;;;;22.79;51.61;101487.97;5006352;28;20053;-42
2023/08/05 06:40:11;;;;;;;3.78;2.95;;;;;;;22.80;51.50;101488.84;5007471;28;20128;-40
2023/08/05 06:42:38;;;;;;;5.40;2.17;;;;;;;22.80;51.71;101486.97;5004234;28;20128;-40
2023/08/05 06:45:05;;;;;;;2.70;2.10;;;;;;;22.81;51.33;101493.22;5010245;28;20535;-41
2023/08/05 06:47:32;;;;;;;2.85;1.98;;;;;;;22.80;51.61;101486.97;5008315;28;20060;-42
2023/08/05 06:49:58;;;;;;;4.15;2.47;;;;;;;22.80;51.56;101495.09;5009105;28;20072;-41
2023/08/05 06:52:25;;;;;;;3.47;2.17;;;;;;;22.80;51.65;101480.75;5009642;28;20107;-42
2023/08/05 06:54:52;;;;;;;4.55;2.33;;;;;;;22.80;51.81;101483.44;5009718;28;20088;-41
2023/08/05 06:57:19;;;;;;;4.88;2.63;;;;;;;22.80;51.55;101472.63;5013324;28;20084;-41
2023/08/05 06:59:46;;;;;;;3.47;2.50;;;;;;;22.82;51.88;101470.59;5015027;28;20057;-42
2023/08/05 07:02:12;;;;;;;4.63;2.67;;;;;;;22.81;51.87;101458.94;5014412;28;20513;-41
2023/08/05 07:04:39;;;;;;;3.40;2.40;;;;;;;22.82;51.47;101457.06;5014457;28;20046;-39
2023/08/05 07:07:06;;;;;;;3.63;2.28;;;;;;;22.82;51.72;101451.66;5014097;28;20104;-40
2023/08/05 07:09:32;;;;;;;5.72;2.20;;;;;;;22.83;51.74;101453.34;5013806;28;20058;-40
2023/08/05 07:11:59;;;;;;;3.97;2.47;;;;;;;22.83;51.84;101454.19;5013643;28;20104;-40
2023/08/05 07:14:25;;;;;;;3.42;2.60;;;;;;;22.85;51.42;101454.88;5013783;28;20108;-40
2023/08/05 07:16:52;;;;;;;4.32;2.58;;;;;;;22.86;51.86;101444.91;5011826;28;20141;-41
2023/08/05 07:19:19;;;;;;;6.93;2.97;;;;;;;22.88;51.24;101449.13;5010608;28;20097;-40
2023/08/05 07:21:45;;;;;;;5.32;3.03;;;;;;;22.90;51.76;101449.81;5010374;28;20120;-43
2023/08/05 07:24:12;;;;;;;8.75;4.15;;;;;;;22.87;51.50;101454.69;4990579;28;20454;-43
2023/08/05 07:26:39;;;;;;;6.47;3.90;;;;;;;22.84;51.59;101450.50;5002963;28;20151;-44
2023/08/05 07:29:05;;;;;;;16.13;4.35;;;;;;;22.82;51.95;101443.56;5000121;28;20168;-44
2023/08/05 07:31:32;;;;;;;7.05;3.45;;;;;;;22.82;51.70;101441.69;4997668;28;20631;-44
2023/08/05 07:33:58;;;;;;;6.72;3.22;;;;;;;22.82;51.62;101441.69;4999113;28;20077;-44
2023/08/05 07:36:27;;;;;;;9.13;4.05;;;;;;;22.82;51.82;101440.84;5001629;28;20046;-44
2023/08/05 07:38:54;;;;;;;7.80;4.82;;;;;;;22.80;51.87;101443.75;5004414;28;20065;-44
2023/08/05 07:41:23;;;;;;;12.68;7.22;;;;;;;22.80;51.98;101426.69;4981731;28;20427;-43
2023/08/05 07:43:50;;;;;;;10.48;6.10;;;;;;;22.80;51.76;101421.28;5034537;28;20065;-44
2023/08/05 07:46:19;;;;;;;11.48;6.35;;;;;;;22.80;52.14;101413.16;5022322;28;20138;-44
2023/08/05 07:48:49;;;;;;;10.68;6.93;;;;;;;22.78;51.91;101416.03;5022290;28;20065;-44
2023/08/05 07:51:18;;;;;;;10.57;6.63;;;;;;;22.79;52.24;101416.88;5021924;28;20056;-44
2023/08/05 07:53:47;;;;;;;12.13;6.75;;;;;;;22.81;52.30;101406.75;5026732;28;20475;-43
2023/08/05 07:56:15;;;;;;;12.80;5.95;;;;;;;22.82;51.76;101401.16;5018788;28;20669;-43
2023/08/05 07:58:45;;;;;;;9.35;5.43;;;;;;;22.84;51.88;101401.00;5019323;28;20473;-43
2023/08/05 08:01:16;;;;;;;8.98;5.05;;;;;;;22.86;52.35;101398.94;5021592;28;20091;-43
2023/08/05 08:03:43;;;;;;;9.50;4.93;;;;;;;22.87;52.08;101400.63;4994956;28;20516;-43
2023/08/05 08:06:15;;;;;;;8.05;5.43;;;;;;;22.88;51.88;101396.94;5020341;28;20479;-44
2023/08/05 08:08:44;;;;;;;7.40;4.35;;;;;;;22.89;52.12;101401.31;5019284;28;20061;-43
2023/08/05 08:11:11;;;;;;;7.25;3.88;;;;;;;22.90;51.70;101392.19;5018298;28;20056;-43
2023/08/05 08:13:39;;;;;;;9.55;3.90;;;;;;;22.90;51.89;101390.34;5015281;28;20136;-43
2023/08/05 08:16:06;;;;;;;11.75;4.15;;;;;;;22.88;51.95;101376.16;5024879;28;20716;-43
2023/08/05 08:18:32;;;;;;;6.15;3.60;;;;;;;22.90;51.88;101376.84;5021217;28;20049;-43
2023/08/05 08:20:59;;;;;;;6.50;3.10;;;;;;;22.90;52.30;101371.44;4993957;28;20056;-43
2023/08/05 08:23:26;;;;;;;5.20;3.35;;;;;;;22.92;51.96;101373.97;5023735;28;20155;-43
2023/08/05 08:25:52;;;;;;;8.98;4.18;;;;;;;22.93;51.51;101372.94;5019254;28;20053;-43
2023/08/05 08:28:19;;;;;;;8.60;5.03;;;;;;;22.94;52.00;101363.81;5020194;28;21149;-43
2023/08/05 08:30:56;;;;;;;10.00;6.70;;;;;;;22.93;51.57;101359.44;5021045;28;20122;-42
2023/08/05 08:33:23;;;;;;;11.27;5.38;;;;;;;22.97;51.73;101351.81;5017724;28;20057;-44
2023/08/05 08:35:50;;;;;;;9.68;5.63;;;;;;;22.98;51.54;101354.34;5019277;28;20460;-44
2023/08/05 08:38:19;;;;;;;8.70;4.03;;;;;;;22.99;51.36;101338.97;5021166;28;20491;-44
2023/08/05 08:40:49;;;;;;;9.15;4.18;;;;;;;23.00;51.45;101341.50;5020364;28;20192;-44
2023/08/05 08:43:20;;;;;;;5.95;3.60;;;;;;;23.00;51.10;101344.22;4981238;28;20057;-44
2023/08/05 08:45:50;;;;;;;7.40;4.13;;;;;;;23.01;50.96;101347.75;5020120;28;20049;-44
2023/08/05 08:48:17;;;;;;;6.68;3.67;;;;;;;23.00;50.92;101340.66;5017776;28;20056;-44
2023/08/05 08:50:48;;;;;;;5.25;3.15;;;;;;;22.99;50.75;101339.81;5018430;28;20057;-46
2023/08/05 08:53:15;;;;;;;7.25;3.05;;;;;;;22.99;50.75;101337.09;5021564;28;20046;-43
2023/08/05 08:55:43;;;;;;;5.15;3.10;;;;;;;22.98;50.63;101327.31;5019083;28;20136;-44
2023/08/05 08:58:11;;;;;;;3.78;2.60;;;;;;;23.00;50.48;101324.44;5015228;28;20049;-44
2023/08/05 09:00:37;;;;;;;7.22;2.67;;;;;;;23.00;50.52;101322.59;5020758;28;20505;-44
2023/08/05 09:03:05;;;;;;;6.40;3.00;;;;;;;23.01;50.51;101323.44;4983833;28;20711;-44
2023/08/05 09:05:42;;;;;;;5.32;2.60;;;;;;;23.02;50.15;101319.69;5016280;28;20316;-44
2023/08/05 09:08:09;;;;;;;7.25;3.30;;;;;;;23.03;50.47;101314.09;5019717;28;20062;-44
2023/08/05 09:10:37;;;;;;;8.25;2.95;;;;;;;23.04;50.45;101306.84;5020499;28;20037;-44
2023/08/05 09:13:05;;;;;;;4.55;3.13;;;;;;;23.05;50.61;101301.25;5018438;28;20100;-44
2023/08/05 09:15:35;;;;;;;5.30;2.85;;;;;;;23.05;50.13;101295.03;5018735;28;20574;-44
2023/08/05 09:18:04;;;;;;;5.55;3.40;;;;;;;23.07;50.04;101295.66;5015422;28;20055;-46
2023/08/05 09:20:32;;;;;;;7.15;3.35;;;;;;;23.07;49.93;101290.25;5017760;28;20049;-44
2023/08/05 09:23:01;;;;;;;13.35;7.13;;;;;;;23.06;50.08;101289.44;4979655;28;21013;-46
2023/08/05 09:25:30;;;;;;;17.75;12.13;;;;;;;23.06;50.34;101286.72;5019340;28;20049;-46
2023/08/05 09:27:59;;;;;;;19.08;10.15;;;;;;;23.09;50.73;101280.13;5017189;28;20056;-47
2023/08/05 09:30:27;;;;;;;13.93;8.18;;;;;;;23.09;50.33;101274.72;5019183;28;20321;-46
2023/08/05 09:32:54;;;;;;;19.02;9.52;;;;;;;23.10;50.17;101262.88;5017694;28;20142;-44
2023/08/05 09:35:24;;;;;;;14.48;9.43;;;;;;;23.10;50.31;101266.41;5018768;28;20443;-43
2023/08/05 09:38:00;;;;;;;12.02;8.13;;;;;;;23.11;50.48;101268.09;5005248;28;20921;-35
2023/08/05 09:40:29;;;;;;;10.50;6.60;;;;;;;23.13;50.56;101262.53;5031398;28;20053;-35
2023/08/05 09:43:02;;;;;;;9.93;5.25;;;;;;;23.12;50.16;101253.59;4998793;28;20060;-35
2023/08/05 09:45:32;;;;;;;8.98;5.05;;;;;;;23.13;50.02;101254.41;5050311;28;20561;-35
2023/08/05 09:48:04;;;;;;;8.60;4.72;;;;;;;23.14;50.13;101256.09;5041906;28;20360;-35
2023/08/05 09:50:31;;;;;;;6.70;4.65;;;;;;;23.13;50.55;101252.56;5048851;28;20329;-35
2023/08/05 09:53:02;;;;;;;7.40;4.88;;;;;;;23.13;50.22;101252.56;5052776;28;20053;-35
2023/08/05 09:55:29;;;;;;;7.88;4.22;;;;;;;23.14;50.39;101248.81;5048614;28;20140;-35
2023/08/05 09:57:56;;;;;;;6.15;3.67;;;;;;;23.14;50.71;101243.41;5046943;28;20135;-35
2023/08/05 10:00:24;;;;;;;5.97;3.22;;;;;;;23.14;50.44;101240.72;5046308;28;20507;-35
2023/08/05 10:02:51;;;;;;;5.13;3.30;;;;;;;23.14;50.55;101235.31;5034804;28;20092;-35
2023/08/05 10:05:19;;;;;;;8.77;3.67;;;;;;;23.14;50.56;101237.16;5048112;28;20057;-35
2023/08/05 10:07:46;;;;;;;8.55;3.85;;;;;;;23.15;50.33;101236.13;5044721;28;20049;-35
2023/08/05 10:10:19;;;;;;;3.80;2.90;;;;;;;23.14;50.63;101235.31;5047622;28;20150;-35
2023/08/05 10:12:58;;;;;;;12.48;3.20;;;;;;;23.15;51.12;101234.28;5044636;28;20056;-35
2023/08/05 10:15:29;;;;;;;7.10;3.20;;;;;;;23.17;50.87;101230.56;5046025;28;20392;-35
2023/08/05 10:17:57;;;;;;;9.80;5.32;;;;;;;23.15;50.93;101234.28;5043807;28;20189;-35
2023/08/05 10:20:24;;;;;;;6.90;4.38;;;;;;;23.14;51.10;101229.88;5049739;28;20517;-35
2023/08/05 10:23:09;;;;;;;8.40;5.38;;;;;;;23.09;51.83;101232.28;4999653;28;20069;-35
2023/08/05 10:25:45;;;;;;;11.00;4.88;;;;;;;23.10;51.94;101223.16;5028146;28;20054;-35
2023/08/05 10:28:24;;;;;;;10.20;4.60;;;;;;;23.10;52.55;101211.50;5023126;28;20054;-35
2023/08/05 10:30:54;;;;;;;8.30;4.15;;;;;;;23.09;52.15;101216.06;5026975;28;20044;-35
2023/08/05 10:33:21;;;;;;;8.55;4.90;;;;;;;23.08;52.26;101210.84;5024135;28;20057;-35
2023/08/05 10:35:49;;;;;;;10.68;4.30;;;;;;;23.08;52.71;101213.56;5023848;28;20327;-35
2023/08/05 10:38:19;;;;;;;8.82;4.40;;;;;;;23.09;52.94;101207.97;5020708;28;20049;-35
2023/08/05 10:40:49;;;;;;;8.98;4.50;;;;;;;23.10;53.04;101193.41;5023620;28;20384;-35
2023/08/05 10:43:31;;;;;;;10.40;4.47;;;;;;;23.08;53.17;101195.47;4981831;28;20062;-34
2023/08/05 10:45:58;;;;;;;11.43;4.38;;;;;;;23.09;53.13;101197.16;5024908;28;20053;-34
2023/08/05 10:48:44;;;;;;;7.38;4.20;;;;;;;23.09;53.10;101194.44;5024844;28;20053;-34
2023/08/05 10:51:13;;;;;;;5.60;3.38;;;;;;;23.12;53.13;101195.97;5015520;28;20140;-34
2023/08/05 10:53:43;;;;;;;7.75;3.50;;;;;;;23.12;52.60;101194.09;5019000;28;20049;-34
2023/08/05 10:56:12;;;;;;;10.05;3.17;;;;;;;23.13;52.63;101198.47;5020674;28;20131;-33
2023/08/05 10:59:05;;;;;;;5.50;2.90;;;;;;;23.12;52.59;101199.50;5017614;28;20520;-35
2023/08/05 11:01:55;;;;;;;6.07;3.33;;;;;;;23.14;51.91;101192.03;5019029;28;20055;-37
2023/08/05 11:04:30;;;;;;;6.95;2.88;;;;;;;23.19;52.15;101193.34;4983809;28;20057;-36
2023/08/05 11:07:03;;;;;;;6.88;3.05;;;;;;;23.21;52.21;101185.91;5034790;28;20053;-36
2023/08/05 11:09:33;;;;;;;5.45;2.92;;;;;;;23.19;52.20;101187.94;5033759;28;20049;-36
2023/08/05 11:12:00;;;;;;;6.85;3.08;;;;;;;23.17;51.79;101180.03;5037807;28;20053;-36
2023/08/05 11:14:28;;;;;;;13.57;7.05;;;;;;;23.17;52.01;101173.78;5035713;28;20053;-36
2023/08/05 11:17:02;;;;;;;9.15;5.13;;;;;;;23.14;51.98;101178.50;5030452;28;20053;-37
2023/08/05 11:20:01;;;;;;;7.57;4.22;;;;;;;23.13;51.52;101166.03;5035936;28;20243;-37
2023/08/05 11:22:29;;;;;;;9.02;3.88;;;;;;;23.14;51.20;101173.09;5033911;28;20162;-36
2023/08/05 11:24:59;;;;;;;5.82;3.42;;;;;;;23.09;51.11;101175.50;5038371;28;20267;-37
2023/08/05 11:27:32;;;;;;;8.15;3.65;;;;;;;23.06;50.96;101170.47;5035427;28;20452;-37